Live aus Altenrhein
LIVE
LSZR 240650Z 29008KT 220V310 9999 SCT040 BKN050 23/16 Q1020 NOSIG RMK C

People´s Info Center:

Öffnungszeiten Mo-Fr, 8-18 Uhr

 

info@peoples.ch

 
Aus Österreich:

T: +43 (0)5572 203 610

 

Aus CH / LI / DE:

T: +41 (0)71 858 51 60

 

Aktueller Timetable / Live Flugstatus

Flughafen St.Gallen-Altenrhein.


Ankünfte in St. Gallen-Altenrhein
Plan Erw. von Flug Info
11:30 11:30 Menorca PE503
planmässig
14:35 14:35 Olbia PE525
planmässig
14:35 14:35 Cagliari PE525
planmässig
18:50 18:50 Pula PE511
planmässig

Shuttlebus online buchen

Altenrhein - Vorarlberg ->hier buchen

 

Abflüge von St. Gallen-Altenrhein
Plan Erw. nach Flug Info
07:30 07:30 Menorca PE502
gelandet
09:00 09:00 Olbia PE524
abgeflogen
09:00 09:00 Cagliari PE524
planmässig
16:10 16:10 Pula PE510
planmässig
19:30 19:30 Wien PE112
planmässig

People's Info Center

T. +43 (0)5572 203 610

T. +41 (0)71 858 51 60